Alford, United Kingdom
Current Conditions -  °F | °C
As of 10:20 AM on Saturday 22 Nov 2014 (Local Time) from EGPD Reporting Station
Broken Clouds Broken Clouds  
Wind Chill: 50°   Ceiling: 500
Heat Index: 50°   Visibility: 5mi
Dew Point: 48°   Wind: 13mph
Humidity: 94%   Direction: 160°SSE
Pressure: 29.74"   Gusts: NA
Location:  57.23°N, 2.7°W
Report Text: EGPD 221020Z 16011KT 8000 BKN005 BKN013 10/09 Q1007 TEMPO BKN009
Loading
Personal Weather Stations






























Interactive Weather Map New forecast layout! Learn more

10-Day Weather Forecast

Advertisements
Track Severe Weather on mobile